Bookmark and Share
Track history (hours):
 

Amber Lagoon

Last reported at 2014-Apr-09 19:09 UTC. Time now 2014-Apr-18 18:12 UTC.
Position S 32°03' E 016°30'.
Warning: this ship's position is 8 days out of date.

Length 192 m; draft 8 m.

Type: Cargo ship. MMSI: 538090116.

NotesDate/timePositionNaut miles runAvg speedWind from/ knotsBaromVisibWave heightAir tempDewpointWater temp
2014-Apr-09 19:09S 32°03' E 016°30'14314.2
2014-Apr-09 09:08S 33°51' E 018°20'6 9.8
2014-Apr-09 08:33S 33°54' E 018°26'1 0.6
2014-Apr-09 07:32S 33°55' E 018°26'0 0.0
2014-Apr-09 06:29S 33°55' E 018°26'0 0.0
2014-Apr-09 05:32S 33°55' E 018°26'0 0.0
2014-Apr-09 04:32S 33°55' E 018°26'0 0.0
2014-Apr-09 03:32S 33°55' E 018°26'0 0.0
2014-Apr-09 02:29S 33°55' E 018°26'0 0.0
2014-Apr-09 01:32S 33°55' E 018°26'0 0.0
2014-Apr-09 00:29S 33°55' E 018°26'0 0.0
2014-Apr-08 23:31S 33°55' E 018°26'0 0.0
2014-Apr-08 22:31S 33°55' E 018°26'0 0.0
2014-Apr-08 21:31S 33°55' E 018°26'0 0.0
2014-Apr-08 20:25S 33°55' E 018°26'0 0.0
2014-Apr-08 19:31S 33°55' E 018°26'0 0.0
2014-Apr-08 18:31S 33°55' E 018°26'0 0.0
2014-Apr-08 17:31S 33°55' E 018°26'0 0.0
2014-Apr-08 16:31S 33°55' E 018°26'0 0.0
2014-Apr-08 15:31S 33°55' E 018°26'0 0.0
2014-Apr-08 14:31S 33°55' E 018°26'0 0.0
2014-Apr-08 13:31S 33°55' E 018°26'0 0.0
2014-Apr-08 12:25S 33°55' E 018°26'0 0.0
2014-Apr-08 11:31S 33°55' E 018°26'0 0.0
2014-Apr-08 10:31S 33°55' E 018°26'0 0.0
2014-Apr-08 09:31S 33°55' E 018°26'0 0.0
2014-Apr-08 08:31S 33°55' E 018°26'0 0.0
2014-Apr-08 07:31S 33°55' E 018°26'0 0.0
2014-Apr-08 06:28S 33°55' E 018°26'0 0.0
2014-Apr-08 05:28S 33°55' E 018°26'0 0.0
2014-Apr-08 04:31S 33°55' E 018°26'0 0.0
2014-Apr-08 03:31S 33°55' E 018°26'0 0.0
2014-Apr-08 02:31S 33°55' E 018°26'0 0.0
2014-Apr-08 01:32S 33°55' E 018°26'1 0.6
2014-Apr-08 00:33S 33°54' E 018°26'6 5.9
2014-Apr-07 23:32S 33°55' E 018°19'1313.3
2014-Apr-07 22:32S 34°07' E 018°14'1413.9
2014-Apr-07 21:33S 34°21' E 018°10'1813.5
2014-Apr-07 20:12S 34°38' E 018°05'17 6.3
2014-Apr-07 17:30S 34°52' E 018°17'14 7.4
2014-Apr-07 15:32S 34°54' E 018°34'6 6.1
2014-Apr-07 14:33S 34°56' E 018°41'6 6.2
2014-Apr-07 13:33S 34°57' E 018°48'7 7.2
2014-Apr-07 12:33S 34°58' E 018°57'7 7.2
2014-Apr-07 11:33S 34°59' E 019°06'10 7.4
2014-Apr-07 10:13S 34°60' E 019°18'5 7.1
2014-Apr-07 09:33S 35°00' E 019°24'5 4.8
2014-Apr-07 08:25S 34°59' E 019°30'7 7.7
2014-Apr-07 07:31S 34°59' E 019°38'22 9.6
2014-Apr-07 05:15S 34°60' E 020°05'6713.3
2014-Apr-07 00:12S 34°50' E 021°26'913.5
2014-Apr-06 23:30S 34°49' E 021°38'1713.7
2014-Apr-06 22:14S 34°45' E 021°58'145 9.2
2014-Apr-06 06:26S 34°25' E 024°53'1011.1
2014-Apr-06 05:32S 34°19' E 025°03'1413.2
2014-Apr-06 04:30S 34°17' E 025°19'19914.1
2014-Apr-05 14:26S 32°37' E 028°45'2015.8
2014-Apr-05 13:09S 32°22' E 029°01'1015.8
2014-Apr-05 12:29S 32°14' E 029°09'1615.1
2014-Apr-05 11:27S 32°02' E 029°21'5313.4
2014-Apr-05 07:30S 31°23' E 030°04'1111.0
2014-Apr-05 06:29S 31°14' E 030°12'10 9.6
2014-Apr-05 05:23S 31°07' E 030°20'7310.2
2014-Apr-04 22:12S 30°02' E 031°02'810.8
2014-Apr-04 21:26S 29°55' E 031°06'4 3.8
2014-Apr-04 20:27S 29°52' E 031°02'0 0.2
2014-Apr-04 19:33S 29°52' E 031°02'0 0.0
2014-Apr-04 18:33S 29°52' E 031°02'0 0.0
2014-Apr-04 17:20S 29°52' E 031°02'0 0.0
2014-Apr-04 16:26S 29°52' E 031°02'0 0.0
2014-Apr-04 15:32S 29°52' E 031°02'0 0.0
2014-Apr-04 14:32S 29°52' E 031°02'0 0.0
2014-Apr-04 13:32S 29°52' E 031°02'0 0.0
2014-Apr-04 12:32S 29°52' E 031°02'0 0.0
2014-Apr-04 10:32S 29°52' E 031°02'0 0.0
2014-Apr-04 09:32S 29°52' E 031°02'0 0.0
2014-Apr-04 08:32S 29°52' E 031°02'0 0.0
2014-Apr-04 07:32S 29°52' E 031°02'0 0.0
2014-Apr-04 05:32S 29°52' E 031°02'0 0.0
2014-Apr-04 04:32S 29°52' E 031°02'0 0.0
2014-Apr-04 01:29S 29°52' E 031°02'0 0.0
2014-Apr-04 00:32S 29°52' E 031°02'0 0.0
2014-Apr-03 23:32S 29°52' E 031°02'0 0.0
2014-Apr-03 22:26S 29°52' E 031°02'0 0.0
2014-Apr-03 21:32S 29°52' E 031°02'0 0.0
2014-Apr-03 20:32S 29°52' E 031°02'0 0.0
2014-Apr-03 19:20S 29°52' E 031°02'0 0.0
2014-Apr-03 15:32S 29°52' E 031°02'2 0.8
2014-Apr-03 13:33S 29°51' E 031°04'8 7.9
2014-Apr-03 12:33S 29°44' E 031°08'3 3.1
2014-Apr-03 11:27S 29°41' E 031°09'0 0.0
2014-Apr-03 10:31S 29°41' E 031°09'0 0.0
2014-Apr-03 09:30S 29°41' E 031°09'0 0.0
2014-Apr-03 08:33S 29°41' E 031°09'0 0.0
2014-Apr-03 07:25S 29°41' E 031°09'0 0.0
2014-Apr-03 06:33S 29°41' E 031°09'0 0.0
2014-Apr-03 05:27S 29°41' E 031°09'0 0.0
2014-Apr-03 04:29S 29°41' E 031°09'0 0.0
2014-Apr-03 03:33S 29°41' E 031°09'0 0.0
2014-Apr-03 02:30S 29°41' E 031°09'0 0.1
2014-Apr-03 01:33S 29°41' E 031°09'0 0.1
2014-Apr-03 00:22S 29°41' E 031°09'0 0.0
2014-Apr-02 23:33S 29°41' E 031°09'0 0.0
2014-Apr-02 22:32S 29°41' E 031°09'0 0.0
2014-Apr-02 21:24S 29°41' E 031°09'0 0.0
2014-Apr-02 20:31S 29°41' E 031°09'0 0.1
2014-Apr-02 19:32S 29°41' E 031°09'0 0.0
2014-Apr-02 18:27S 29°41' E 031°09'0 0.0
2014-Apr-02 17:32S 29°41' E 031°09'0 0.0
2014-Apr-02 16:24S 29°41' E 031°09'0 0.0
2014-Apr-02 15:24S 29°41' E 031°09'0 0.0
2014-Apr-02 14:34S 29°41' E 031°09'0 0.0
2014-Apr-02 13:25S 29°41' E 031°09'0 0.0
2014-Apr-02 12:17S 29°41' E 031°09'0 0.0
2014-Apr-02 11:16S 29°41' E 031°09'0 0.0
2014-Apr-02 10:31S 29°41' E 031°09'0 0.0
2014-Apr-02 09:33S 29°41' E 031°09'0 0.0
2014-Apr-02 08:27S 29°41' E 031°09'0 0.1
2014-Apr-02 07:15S 29°41' E 031°09'0 0.1
2014-Apr-02 06:32S 29°41' E 031°09'0 0.0
2014-Apr-02 05:25S 29°41' E 031°09'0 0.0
2014-Apr-02 04:26S 29°41' E 031°09'0 0.0
2014-Apr-02 03:19S 29°41' E 031°09'0 0.1
2014-Apr-02 02:19S 29°41' E 031°09'0 0.0
2014-Apr-02 01:20S 29°41' E 031°09'0 0.0
2014-Apr-02 00:09S 29°41' E 031°09'0 0.1
2014-Apr-01 23:32S 29°41' E 031°09'0 0.1
2014-Apr-01 22:32S 29°41' E 031°09'0 0.1
2014-Apr-01 21:09S 29°41' E 031°09'0 0.1
2014-Apr-01 20:33S 29°41' E 031°09'0 0.0
2014-Apr-01 19:32S 29°41' E 031°09'0 0.2
2014-Apr-01 18:31S 29°41' E 031°09'5 5.7
2014-Apr-01 17:33S 29°43' E 031°15'2 1.8
2014-Apr-01 16:33S 29°43' E 031°17'1010.3
2014-Apr-01 15:32S 29°36' E 031°26'1414.4
2014-Apr-01 14:33S 29°28' E 031°39'1414.2
2014-Apr-01 13:33S 29°19' E 031°51'1515.0
2014-Apr-01 12:33S 29°08' E 032°04'1716.9
2014-Apr-01 11:33S 28°54' E 032°14'1210.5
2014-Apr-01 10:23S 28°48' E 032°02'0 0.0
2014-Mar-31 14:20S 28°47' E 032°02'  

Dump ship's entire track history

sailing weather and tide predictions

Amber Lagoon — V7FS4 — position and weather